Time;durP1;ratioP1;P1;durP2;ratioP2;P2;SDS_P1;SDS_P2;PMS_P1;PMS_P2;Temp;Humidity;BMP_temperature;BMP_pressure;BME280_temperature;BME280_humidity;BME280_pressure;Samples;Min_cycle;Max_cycle;Signal;HPM_P1;HPM_P2
2022/04/01 00:00:49;;;;;;;2.92;0.70;;;19.20;99.90;;;;;;4994761;28;20731;-64
2022/04/01 00:03:16;;;;;;;4.78;0.90;;;19.20;99.90;;;;;;4997441;28;20116;-65
2022/04/01 00:05:43;;;;;;;1.88;0.40;;;19.20;99.90;;;;;;4990537;28;20188;-66
2022/04/01 00:08:10;;;;;;;3.13;0.60;;;19.40;99.90;;;;;;4999963;28;20026;-65
2022/04/01 00:10:37;;;;;;;1.55;0.40;;;19.50;99.90;;;;;;4994027;28;20025;-65
2022/04/01 00:13:05;;;;;;;2.88;0.52;;;19.40;99.90;;;;;;4996103;28;20033;-64
2022/04/01 00:15:32;;;;;;;1.42;0.57;;;19.40;99.90;;;;;;4999956;28;20563;-66
2022/04/01 00:18:00;;;;;;;0.70;0.40;;;19.50;99.90;;;;;;4991148;28;20536;-65
2022/04/01 00:20:27;;;;;;;1.23;0.55;;;19.50;99.90;;;;;;4989206;28;20508;-65
2022/04/01 00:22:55;;;;;;;2.83;0.75;;;19.70;99.90;;;;;;4305914;28;10000027;-66
2022/04/01 00:25:23;;;;;;;1.70;0.30;;;19.80;99.90;;;;;;4992331;28;20156;-65
2022/04/01 00:27:50;;;;;;;0.65;0.38;;;20.00;99.90;;;;;;4998582;28;20133;-66
2022/04/01 00:30:18;;;;;;;1.88;0.50;;;20.10;99.90;;;;;;4997069;28;20029;-67
2022/04/01 00:32:45;;;;;;;1.30;0.40;;;20.00;99.90;;;;;;4995628;28;20291;-66
2022/04/01 00:35:12;;;;;;;0.52;0.28;;;20.10;99.90;;;;;;4994660;28;20030;-66
2022/04/01 00:37:40;;;;;;;5.10;0.65;;;20.10;99.90;;;;;;4989022;28;20480;-64
2022/04/01 00:40:10;;;;;;;1.88;0.55;;;19.90;99.90;;;;;;5001798;28;20065;-66
2022/04/01 00:42:37;;;;;;;0.90;0.30;;;20.00;99.90;;;;;;4998022;28;20113;-66
2022/04/01 00:45:05;;;;;;;0.68;0.35;;;20.10;99.90;;;;;;5001074;28;20014;-64
2022/04/01 00:47:31;;;;;;;0.70;0.38;;;20.20;99.90;;;;;;4992482;28;20054;-66
2022/04/01 00:50:01;;;;;;;3.25;0.57;;;20.10;99.90;;;;;;5002713;28;20442;-66
2022/04/01 00:52:30;;;;;;;1.73;0.70;;;20.10;99.90;;;;;;4991425;28;20080;-66
2022/04/01 00:54:57;;;;;;;2.70;1.08;;;20.10;99.90;;;;;;4989520;28;20071;-65
2022/04/01 00:57:25;;;;;;;1.08;0.50;;;20.20;99.90;;;;;;4989565;28;20122;-66
2022/04/01 00:59:54;;;;;;;1.52;0.50;;;20.50;99.90;;;;;;5005021;28;20022;-66
2022/04/01 01:02:21;;;;;;;2.28;0.50;;;20.50;99.90;;;;;;5000020;28;20481;-65
2022/04/01 01:04:48;;;;;;;2.22;0.50;;;20.60;99.90;;;;;;4999817;28;20025;-67
2022/04/01 01:07:15;;;;;;;1.70;0.45;;;20.50;99.90;;;;;;5001688;28;20053;-66
2022/04/01 01:09:45;;;;;;;1.98;0.40;;;20.20;99.90;;;;;;5004577;28;20612;-68
2022/04/01 01:12:12;;;;;;;4.05;0.85;;;20.30;99.90;;;;;;4997552;28;20027;-66
2022/04/01 01:14:41;;;;;;;1.27;0.52;;;20.10;99.90;;;;;;4988949;28;20026;-64
2022/04/01 01:17:11;;;;;;;1.30;0.75;;;20.00;99.90;;;;;;4994728;28;20033;-64
2022/04/01 01:19:39;;;;;;;2.45;0.38;;;20.00;99.90;;;;;;4996944;28;20104;-66
2022/04/01 01:22:08;;;;;;;1.05;0.28;;;19.90;99.90;;;;;;4999681;28;20036;-65
2022/04/01 01:24:41;;;;;;;1.95;0.80;;;19.70;99.90;;;;;;5006562;28;20018;-66
2022/04/01 01:27:09;;;;;;;2.67;0.70;;;19.70;99.90;;;;;;4994216;28;20027;-67
2022/04/01 01:29:39;;;;;;;2.20;0.90;;;19.90;99.90;;;;;;4997890;28;20111;-65
2022/04/01 01:32:09;;;;;;;0.65;0.40;;;19.90;99.90;;;;;;5001323;28;20034;-66
2022/04/01 01:34:36;;;;;;;3.53;0.55;;;20.10;99.90;;;;;;4992935;28;20037;-66
2022/04/01 01:37:04;;;;;;;2.25;0.40;;;20.00;99.90;;;;;;4996303;28;20058;-66
2022/04/01 01:39:31;;;;;;;0.90;0.25;;;20.00;99.90;;;;;;4996540;28;20044;-65
2022/04/01 01:41:59;;;;;;;0.52;0.20;;;19.90;99.90;;;;;;4989219;28;20089;-65
2022/04/01 01:44:26;;;;;;;1.13;0.28;;;20.10;99.90;;;;;;4988802;28;20057;-65
2022/04/01 01:46:54;;;;;;;0.50;0.30;;;20.40;99.90;;;;;;4988215;28;20366;-64
2022/04/01 01:49:21;;;;;;;1.85;0.50;;;20.40;99.90;;;;;;4990278;28;20030;-66
2022/04/01 01:57:22;;;;;;;0.75;0.50;;;20.30;99.90;;;;;;5004748;28;20034;-66
2022/04/01 01:59:50;;;;;;;3.20;0.55;;;20.30;99.90;;;;;;5002573;28;20468;-68
2022/04/01 02:02:18;;;;;;;0.98;0.30;;;20.40;99.90;;;;;;4989446;28;20053;-65
2022/04/01 02:04:49;;;;;;;1.98;0.70;;;20.30;99.90;;;;;;4998612;28;20088;-66
2022/04/01 02:07:16;;;;;;;1.25;0.40;;;20.40;99.90;;;;;;4991520;28;20022;-65
2022/04/01 02:09:46;;;;;;;0.85;0.38;;;20.40;99.90;;;;;;5000950;28;20059;-66
2022/04/01 02:12:16;;;;;;;2.33;0.38;;;20.20;99.90;;;;;;4994512;28;20113;-66
2022/04/01 02:14:43;;;;;;;1.40;0.50;;;20.10;99.90;;;;;;4990604;28;20049;-66
2022/04/01 02:17:10;;;;;;;0.57;0.30;;;20.10;99.90;;;;;;4994563;28;20044;-66
2022/04/01 02:19:37;;;;;;;1.50;0.57;;;20.00;99.90;;;;;;4991899;28;20053;-68
2022/04/01 02:22:05;;;;;;;5.13;0.82;;;20.10;99.90;;;;;;4993894;28;20033;-67
2022/04/01 02:24:32;;;;;;;2.20;0.60;;;20.10;99.90;;;;;;4994431;28;20037;-66
2022/04/01 02:27:00;;;;;;;0.82;0.40;;;20.10;99.90;;;;;;4999102;28;20063;-66
2022/04/01 02:29:29;;;;;;;2.53;0.38;;;20.00;99.90;;;;;;4997578;28;20065;-66
2022/04/01 02:31:56;;;;;;;4.13;0.68;;;20.00;99.90;;;;;;4997639;28;20138;-64
2022/04/01 02:34:25;;;;;;;0.82;0.30;;;20.20;99.90;;;;;;5005152;28;20148;-66
2022/04/01 02:36:56;;;;;;;0.98;0.38;;;20.10;99.90;;;;;;4995835;28;20477;-67
2022/04/01 02:39:23;;;;;;;2.17;0.40;;;20.00;99.90;;;;;;4993616;28;20417;-67
2022/04/01 02:41:50;;;;;;;3.03;0.57;;;20.00;99.90;;;;;;4991519;28;20024;-65
2022/04/01 02:44:18;;;;;;;2.25;0.60;;;20.00;99.90;;;;;;4997327;28;20117;-66
2022/04/01 02:46:46;;;;;;;1.45;0.50;;;19.90;99.90;;;;;;4995801;28;20476;-68
2022/04/01 02:49:16;;;;;;;2.58;0.70;;;19.90;99.90;;;;;;4987725;28;20084;-67
2022/04/01 02:51:45;;;;;;;4.65;0.73;;;20.20;99.90;;;;;;4997975;28;20029;-67
2022/04/01 02:54:12;;;;;;;2.42;0.50;;;20.20;99.90;;;;;;4990952;28;20484;-66
2022/04/01 02:56:40;;;;;;;2.55;1.08;;;20.00;99.90;;;;;;4987172;28;20019;-66
2022/04/01 02:59:08;;;;;;;1.80;0.50;;;19.80;99.90;;;;;;4994153;28;20493;-66
2022/04/01 03:01:40;;;;;;;2.47;0.50;;;19.70;99.90;;;;;;4990747;28;20241;-67
2022/04/01 03:04:10;;;;;;;3.30;0.70;;;19.60;99.90;;;;;;4988277;28;20097;-67
2022/04/01 03:06:43;;;;;;;1.38;0.60;;;19.50;99.90;;;;;;4996607;28;20025;-67
2022/04/01 03:09:11;;;;;;;2.72;0.50;;;19.60;99.90;;;;;;4996458;28;20030;-65
2022/04/01 03:11:38;;;;;;;3.53;0.75;;;19.70;99.90;;;;;;4995970;28;20552;-65
2022/04/01 03:14:07;;;;;;;1.83;0.60;;;19.70;99.90;;;;;;4994886;28;20121;-65
2022/04/01 03:16:34;;;;;;;1.30;0.57;;;19.60;99.90;;;;;;5001179;28;20022;-66
2022/04/01 03:19:01;;;;;;;1.95;0.60;;;19.70;99.90;;;;;;4995617;28;20077;-65
2022/04/01 03:21:31;;;;;;;1.83;0.70;;;19.80;99.90;;;;;;4995748;28;20500;-65
2022/04/01 03:24:00;;;;;;;0.77;0.55;;;19.70;99.90;;;;;;4995432;28;20041;-64
2022/04/01 03:26:27;;;;;;;4.22;1.10;;;19.60;99.90;;;;;;4995461;28;20026;-65
2022/04/01 03:28:55;;;;;;;4.50;0.60;;;19.70;99.90;;;;;;4994554;28;20069;-64
2022/04/01 03:31:22;;;;;;;3.33;0.75;;;19.70;99.90;;;;;;4995725;28;20493;-65
2022/04/01 03:33:51;;;;;;;2.00;0.80;;;19.60;99.90;;;;;;4994971;28;20021;-65
2022/04/01 03:36:18;;;;;;;2.03;0.63;;;19.70;99.90;;;;;;4998229;28;20022;-66
2022/04/01 03:38:46;;;;;;;2.30;1.25;;;19.80;99.90;;;;;;4988356;28;20164;-65
2022/04/01 03:41:14;;;;;;;4.53;1.00;;;19.90;99.90;;;;;;4987888;28;20036;-64
2022/04/01 03:43:41;;;;;;;4.20;0.95;;;19.80;99.90;;;;;;4991369;28;20018;-64
2022/04/01 03:46:13;;;;;;;3.28;1.10;;;19.70;99.90;;;;;;4989565;28;20017;-64
2022/04/01 03:48:44;;;;;;;2.50;0.80;;;19.80;99.90;;;;;;4993689;28;20022;-65
2022/04/01 03:51:25;;;;;;;2.90;0.90;;;19.80;99.90;;;;;;4992309;28;20041;-65
2022/04/01 03:53:57;;;;;;;4.57;1.00;;;20.00;99.90;;;;;;4992001;28;20215;-65
2022/04/01 03:56:34;;;;;;;4.80;1.35;;;19.90;99.90;;;;;;4994231;28;20493;-65
2022/04/01 03:59:09;;;;;;;6.63;1.30;;;19.80;99.90;;;;;;4992084;28;20026;-65
2022/04/01 04:01:37;;;;;;;3.80;1.10;;;19.50;99.90;;;;;;4994261;28;20030;-64
2022/04/01 04:04:05;;;;;;;4.97;1.38;;;19.40;99.90;;;;;;4987268;28;20034;-64
2022/04/01 04:06:38;;;;;;;3.78;1.25;;;19.50;99.90;;;;;;4985508;28;20014;-65
2022/04/01 04:09:05;;;;;;;5.20;1.55;;;19.50;99.90;;;;;;4993977;28;20608;-65
2022/04/01 04:11:33;;;;;;;6.88;0.93;;;19.40;99.90;;;;;;4993263;28;20040;-65
2022/04/01 04:14:02;;;;;;;5.82;1.27;;;19.60;99.90;;;;;;5001566;28;20060;-65
2022/04/01 04:16:37;;;;;;;3.47;1.08;;;19.60;99.90;;;;;;4994962;28;20050;-66
2022/04/01 04:19:10;;;;;;;3.63;1.33;;;19.70;99.90;;;;;;4999011;28;20439;-65
2022/04/01 04:22:15;;;;;;;5.35;1.27;;;19.70;99.90;;;;;;4995350;28;20105;-64
2022/04/01 04:24:54;;;;;;;3.83;1.10;;;19.60;99.90;;;;;;4993273;28;20065;-65
2022/04/01 04:27:29;;;;;;;3.88;1.13;;;19.60;99.90;;;;;;4993724;28;20022;-61
2022/04/01 04:30:08;;;;;;;4.93;1.50;;;19.50;99.90;;;;;;5001922;28;20044;-62
2022/04/01 04:32:43;;;;;;;1.83;0.85;;;19.40;99.90;;;;;;4996128;28;20048;-61
2022/04/01 04:35:11;;;;;;;2.30;1.08;;;19.50;99.90;;;;;;4990196;28;20061;-62
2022/04/01 04:37:47;;;;;;;5.32;1.15;;;19.60;99.90;;;;;;4989098;28;20043;-61
2022/04/01 04:40:19;;;;;;;3.33;1.10;;;19.70;99.90;;;;;;4987669;28;20477;-61
2022/04/01 04:42:48;;;;;;;3.47;1.20;;;20.00;99.90;;;;;;4996077;28;20831;-62
2022/04/01 04:45:18;;;;;;;3.58;1.10;;;20.20;99.90;;;;;;4997866;28;20034;-64
2022/04/01 04:47:47;;;;;;;3.13;1.00;;;20.00;99.90;;;;;;4982324;28;20629;-62
2022/04/01 04:50:16;;;;;;;4.38;1.13;;;19.80;99.90;;;;;;4999090;28;20038;-64
2022/04/01 04:52:47;;;;;;;4.18;1.00;;;19.60;99.90;;;;;;4994757;28;20034;-63
2022/04/01 04:55:14;;;;;;;4.28;1.95;;;19.50;99.90;;;;;;4992937;28;20041;-65
2022/04/01 04:57:44;;;;;;;2.97;1.55;;;19.50;99.90;;;;;;4991963;28;20022;-64
2022/04/01 05:00:11;;;;;;;9.93;4.57;;;19.60;99.90;;;;;;4998781;28;20033;-65
2022/04/01 05:03:24;;;;;;;5.05;1.30;;;19.80;99.90;;;;;;5001752;28;20030;-64
2022/04/01 05:05:54;;;;;;;4.37;0.80;;;19.80;99.90;;;;;;5004172;28;20029;-63
2022/04/01 05:08:51;;;;;;;5.13;1.20;;;19.80;99.90;;;;;;5005970;28;20681;-63
2022/04/01 05:12:20;;;;;;;5.75;1.95;;;19.90;99.90;;;;;;5003060;28;20213;-62
2022/04/01 05:15:18;;;;;;;4.55;1.35;;;19.80;99.90;;;;;;4902773;29;20071;-63
2022/04/01 05:18:00;;;;;;;4.43;1.15;;;19.50;99.90;;;;;;4898834;29;20044;-62
2022/04/01 05:20:38;;;;;;;2.83;0.93;;;19.50;99.90;;;;;;4902883;29;20164;-63
2022/04/01 05:23:12;;;;;;;6.53;1.10;;;19.50;99.90;;;;;;4903606;29;20040;-64
2022/04/01 05:25:54;;;;;;;3.63;1.35;;;19.30;99.90;;;;;;4900469;29;20051;-68
2022/04/01 05:28:25;;;;;;;3.47;0.85;;;19.30;99.90;;;;;;4906086;29;20091;-60
2022/04/01 05:31:20;;;;;;;3.17;1.33;;;19.60;99.90;;;;;;4900996;29;20029;-61
2022/04/01 05:33:50;;;;;;;6.18;1.17;;;19.80;99.90;;;;;;4901665;29;20760;-62
2022/04/01 05:36:18;;;;;;;2.90;1.27;;;19.70;99.90;;;;;;4903593;29;20718;-64
2022/04/01 05:38:48;;;;;;;4.28;1.25;;;19.70;99.90;;;;;;4905461;29;20431;-64
2022/04/01 05:41:22;;;;;;;4.78;1.17;;;19.70;99.90;;;;;;4886867;29;20031;-64
2022/04/01 05:43:50;;;;;;;3.03;0.98;;;19.70;99.90;;;;;;4901812;29;20071;-65
2022/04/01 05:46:23;;;;;;;4.85;1.30;;;19.80;99.90;;;;;;4906205;29;20452;-66
2022/04/01 05:48:51;;;;;;;8.88;1.20;;;19.80;99.90;;;;;;4906939;29;20136;-63
2022/04/01 05:51:20;;;;;;;7.53;1.42;;;19.80;99.90;;;;;;4978585;28;20731;-66
2022/04/01 05:53:48;;;;;;;4.72;1.13;;;19.60;99.90;;;;;;5009094;28;20388;-66
2022/04/01 05:56:16;;;;;;;4.63;1.23;;;19.50;99.90;;;;;;5007487;28;20026;-66
2022/04/01 05:58:44;;;;;;;7.43;1.20;;;19.40;99.90;;;;;;5007615;28;20113;-66
2022/04/01 06:01:23;;;;;;;4.32;1.30;;;19.30;99.90;;;;;;5012793;28;20026;-64
2022/04/01 06:04:14;;;;;;;4.68;2.00;;;19.30;99.90;;;;;;5012051;28;20030;-65
2022/04/01 06:06:45;;;;;;;5.45;1.52;;;19.10;99.90;;;;;;5003053;28;20491;-67
2022/04/01 06:09:15;;;;;;;5.63;1.88;;;19.00;99.90;;;;;;5014128;28;20168;-66
2022/04/01 06:12:10;;;;;;;7.97;2.15;;;19.00;99.90;;;;;;5012313;28;20109;-62
2022/04/01 06:15:09;;;;;;;3.47;1.55;;;19.00;99.90;;;;;;5005616;28;20025;-62
2022/04/01 06:18:14;;;;;;;7.18;1.52;;;19.00;99.90;;;;;;5004675;28;20116;-64
2022/04/01 06:20:45;;;;;;;4.95;1.48;;;19.00;99.90;;;;;;4905094;29;20048;-64
2022/04/01 06:23:28;;;;;;;7.85;1.52;;;19.10;99.90;;;;;;4905090;29;20098;-62
2022/04/01 06:26:00;;;;;;;4.97;1.60;;;19.10;99.90;;;;;;4901880;29;20031;-66
2022/04/01 06:28:31;;;;;;;2.53;1.50;;;19.20;99.90;;;;;;4906688;29;20107;-69
2022/04/01 06:31:07;;;;;;;5.07;1.60;;;19.30;99.90;;;;;;4904168;29;20084;-64
2022/04/01 06:34:02;;;;;;;4.70;1.45;;;19.20;99.90;;;;;;4900010;29;20064;-64
2022/04/01 06:36:41;;;;;;;6.15;1.75;;;19.20;99.90;;;;;;4904140;29;20175;-66
2022/04/01 06:39:10;;;;;;;4.50;1.15;;;19.10;99.90;;;;;;4888110;29;20032;-66
2022/04/01 06:41:44;;;;;;;4.72;1.42;;;19.00;99.90;;;;;;4902467;29;20076;-65
2022/04/01 06:44:11;;;;;;;6.90;1.80;;;18.90;99.90;;;;;;4901854;29;20040;-65
2022/04/01 06:46:38;;;;;;;6.30;1.33;;;19.00;99.90;;;;;;4899671;29;20783;-65
2022/04/01 06:49:08;;;;;;;5.13;1.58;;;19.00;99.90;;;;;;4901490;29;20048;-65
2022/04/01 06:51:37;;;;;;;3.88;1.27;;;18.90;99.90;;;;;;4886467;29;20534;-65
2022/04/01 06:54:04;;;;;;;4.60;1.13;;;18.80;99.90;;;;;;4901255;29;20249;-65
2022/04/01 06:56:32;;;;;;;4.55;1.33;;;18.70;99.90;;;;;;4962936;28;20531;-64
2022/04/01 06:58:58;;;;;;;6.15;1.52;;;18.70;99.90;;;;;;5009107;28;20486;-64
2022/04/01 07:01:26;;;;;;;5.40;1.27;;;18.70;99.90;;;;;;5005806;28;20556;-65
2022/04/01 07:03:53;;;;;;;5.43;1.40;;;18.70;99.90;;;;;;5015054;28;20381;-66
2022/04/01 07:06:22;;;;;;;4.43;1.20;;;18.60;99.90;;;;;;5004592;28;20026;-66
2022/04/01 07:08:49;;;;;;;8.55;1.83;;;18.60;99.90;;;;;;5007124;28;20183;-65
2022/04/01 07:11:16;;;;;;;5.97;1.75;;;18.60;99.90;;;;;;5004805;28;20638;-66
2022/04/01 07:13:45;;;;;;;6.47;1.63;;;18.60;99.90;;;;;;5011252;28;20526;-64
2022/04/01 07:16:13;;;;;;;5.72;1.30;;;18.70;99.90;;;;;;5004302;28;20030;-65
2022/04/01 07:18:40;;;;;;;4.68;1.70;;;18.60;99.90;;;;;;5012458;28;20527;-66
2022/04/01 07:21:08;;;;;;;9.00;1.55;;;18.50;99.90;;;;;;5003592;28;20610;-64
2022/04/01 07:23:37;;;;;;;5.72;1.45;;;18.40;99.90;;;;;;5002889;28;20129;-66
2022/04/01 07:26:04;;;;;;;7.45;1.52;;;18.30;99.90;;;;;;4997930;28;20028;-66
2022/04/01 07:28:32;;;;;;;4.80;1.52;;;18.20;99.90;;;;;;5001276;28;20078;-65
2022/04/01 07:32:28;;;;;;;3.30;1.02;;;18.10;99.90;;;;;;5003340;28;20069;-65
2022/04/01 07:33:46;;;;;;;8.45;1.95;;;18.20;99.90;;;;;;5003916;28;20036;-65
2022/04/01 07:36:13;;;;;;;6.40;1.58;;;18.10;99.90;;;;;;5002799;28;20064;-64
2022/04/01 07:38:40;;;;;;;7.45;1.60;;;18.00;99.90;;;;;;4997299;28;20456;-65
2022/04/01 07:41:07;;;;;;;6.40;1.40;;;17.90;99.90;;;;;;4999090;28;20197;-64
2022/04/01 07:43:36;;;;;;;4.72;1.20;;;17.80;99.90;;;;;;5002866;28;20033;-65
2022/04/01 07:46:04;;;;;;;4.35;1.38;;;17.80;99.90;;;;;;4999542;28;20022;-65
2022/04/01 07:48:31;;;;;;;7.15;1.63;;;17.70;99.90;;;;;;4998703;28;20057;-68
2022/04/01 07:50:58;;;;;;;6.35;1.98;;;17.60;99.90;;;;;;4999315;28;20022;-66
2022/04/01 07:53:25;;;;;;;8.73;1.35;;;17.50;99.90;;;;;;4996967;28;20909;-69
2022/04/01 07:55:52;;;;;;;4.93;1.30;;;17.50;99.90;;;;;;5002758;28;20033;-70
2022/04/01 07:58:19;;;;;;;7.35;1.30;;;17.50;99.90;;;;;;5006889;28;20033;-68
2022/04/01 08:00:46;;;;;;;6.03;1.38;;;17.40;99.90;;;;;;5001195;28;20034;-67
2022/04/01 08:03:14;;;;;;;5.88;1.50;;;17.30;99.90;;;;;;4997933;28;20795;-69
2022/04/01 08:05:41;;;;;;;4.70;1.50;;;17.30;99.90;;;;;;5001326;28;20025;-69
2022/04/01 08:08:08;;;;;;;5.03;1.85;;;17.30;99.90;;;;;;4998350;28;20439;-69
2022/04/01 08:10:35;;;;;;;3.97;1.15;;;17.30;99.90;;;;;;5005870;28;20481;-66
2022/04/01 08:13:02;;;;;;;6.10;1.75;;;17.30;99.90;;;;;;5000485;28;20026;-67
2022/04/01 08:15:29;;;;;;;3.72;1.48;;;17.20;99.90;;;;;;5006134;28;20434;-68
2022/04/01 08:17:56;;;;;;;5.88;1.55;;;17.20;99.90;;;;;;4999897;28;20877;-65
2022/04/01 08:20:24;;;;;;;5.53;1.33;;;17.20;99.90;;;;;;4999613;28;20258;-66
2022/04/01 08:22:51;;;;;;;4.55;1.45;;;17.10;99.90;;;;;;5003882;28;20018;-67
2022/04/01 08:25:18;;;;;;;4.75;1.30;;;17.00;99.90;;;;;;5006937;28;20025;-71
2022/04/01 08:27:45;;;;;;;7.97;1.40;;;17.00;99.90;;;;;;4997221;28;20491;-65
2022/04/01 08:30:12;;;;;;;6.35;1.17;;;17.00;99.90;;;;;;4999844;28;20034;-66
2022/04/01 08:32:39;;;;;;;2.92;1.25;;;16.90;99.90;;;;;;4999074;28;20033;-67
2022/04/01 08:35:08;;;;;;;5.40;1.20;;;17.00;99.90;;;;;;4997761;28;20041;-64
2022/04/01 08:37:35;;;;;;;3.70;1.42;;;17.10;99.90;;;;;;4993570;28;20092;-67
2022/04/01 08:40:03;;;;;;;7.63;1.55;;;17.00;99.90;;;;;;4999172;28;20242;-65
2022/04/01 08:42:32;;;;;;;4.70;1.35;;;17.00;99.90;;;;;;5003320;28;20040;-64
2022/04/01 08:45:02;;;;;;;6.25;1.75;;;17.00;99.90;;;;;;4993932;28;20026;-66
2022/04/01 08:47:29;;;;;;;9.57;1.55;;;17.00;99.90;;;;;;4995298;28;20124;-65
2022/04/01 08:49:56;;;;;;;4.13;1.45;;;17.00;99.90;;;;;;4996325;28;20038;-65
2022/04/01 08:52:23;;;;;;;6.07;1.33;;;17.00;99.90;;;;;;4998761;28;20606;-65
2022/04/01 08:54:50;;;;;;;8.75;1.92;;;17.00;99.90;;;;;;4995777;28;20394;-66
2022/04/01 08:57:21;;;;;;;4.60;1.30;;;17.00;99.90;;;;;;4997969;28;20355;-65
2022/04/01 08:59:48;;;;;;;6.03;2.90;;;17.00;99.90;;;;;;4999953;28;20036;-65
2022/04/01 09:02:15;;;;;;;3.92;1.27;;;17.00;99.90;;;;;;5005234;28;20027;-67
2022/04/01 09:04:43;;;;;;;6.53;1.38;;;17.00;99.90;;;;;;4999143;28;20640;-66
2022/04/01 09:07:16;;;;;;;4.03;1.58;;;17.00;99.90;;;;;;4993609;28;20435;-66
2022/04/01 09:09:43;;;;;;;5.78;1.38;;;17.00;99.90;;;;;;4997768;28;20430;-66
2022/04/01 09:12:17;;;;;;;5.47;1.60;;;16.80;99.90;;;;;;5001719;28;20042;-67
2022/04/01 09:14:52;;;;;;;4.32;1.10;;;16.80;99.90;;;;;;5005216;28;20030;-65
2022/04/01 09:17:19;;;;;;;6.25;1.77;;;16.70;99.90;;;;;;4999512;28;20394;-65
2022/04/01 09:19:46;;;;;;;8.23;1.42;;;16.80;99.90;;;;;;5001921;28;20033;-67
2022/04/01 09:22:24;;;;;;;4.35;1.10;;;16.70;99.90;;;;;;5005491;28;20029;-63
2022/04/01 09:25:04;;;;;;;8.02;1.83;;;16.70;99.90;;;;;;5006530;28;20273;-66
2022/04/01 09:27:54;;;;;;;4.70;1.40;;;16.60;99.90;;;;;;5005109;28;20022;-64
2022/04/01 09:30:27;;;;;;;5.20;1.23;;;16.60;99.90;;;;;;5004753;28;20050;-65
2022/04/01 09:32:59;;;;;;;;;;;16.70;99.90;;;;;;5012218;28;20617;-65
2022/04/01 09:35:31;;;;;;;7.88;1.52;;;16.70;99.90;;;;;;5005576;28;19967;-66
2022/04/01 09:38:04;;;;;;;5.68;1.27;;;16.70;99.90;;;;;;5002935;28;20128;-66
2022/04/01 09:40:35;;;;;;;6.82;1.83;;;16.60;99.90;;;;;;5007905;28;20053;-66
2022/04/01 09:43:02;;;;;;;4.07;1.77;;;16.60;99.90;;;;;;4999201;28;20412;-67
2022/04/01 09:45:32;;;;;;;5.40;1.50;;;16.50;99.90;;;;;;5001603;28;20426;-68
2022/04/01 09:48:12;;;;;;;6.00;1.80;;;16.50;99.90;;;;;;5000653;28;20384;-68
2022/04/01 09:50:43;;;;;;;3.75;1.00;;;16.60;99.90;;;;;;5003937;28;20033;-65
2022/04/01 09:53:11;;;;;;;8.27;2.13;;;16.60;99.90;;;;;;5003685;28;20630;-67
2022/04/01 09:55:47;;;;;;;9.40;2.80;;;16.60;99.90;;;;;;5004890;28;20044;-68
2022/04/01 09:58:17;;;;;;;8.88;4.32;;;16.60;99.90;;;;;;5005176;28;20030;-68
2022/04/01 10:00:44;;;;;;;4.47;1.73;;;16.60;99.90;;;;;;5007686;28;20022;-67
2022/04/01 10:03:14;;;;;;;6.40;1.13;;;16.60;99.90;;;;;;5004327;28;20503;-65
2022/04/01 10:05:42;;;;;;;4.18;0.98;;;16.60;99.90;;;;;;4999772;28;20025;-66
2022/04/01 10:08:11;;;;;;;5.88;1.77;;;16.60;99.90;;;;;;5003063;28;20298;-66
2022/04/01 10:10:40;;;;;;;5.53;1.65;;;16.60;99.90;;;;;;5003813;28;20436;-65
2022/04/01 10:13:15;;;;;;;6.03;1.15;;;16.60;99.90;;;;;;5012696;28;20021;-66
2022/04/01 10:15:45;;;;;;;9.52;1.35;;;16.60;99.90;;;;;;5008188;28;20116;-67
2022/04/01 10:18:13;;;;;;;7.50;1.90;;;16.60;99.90;;;;;;5005380;28;20040;-65
2022/04/01 10:20:40;;;;;;;5.68;2.03;;;16.60;99.90;;;;;;5005269;28;20116;-66
2022/04/01 10:23:12;;;;;;;7.72;1.60;;;16.50;99.90;;;;;;5008208;28;20613;-64
2022/04/01 10:25:59;;;;;;;6.37;1.00;;;16.60;99.90;;;;;;4998211;28;20025;-65
2022/04/01 10:28:27;;;;;;;6.05;1.70;;;16.60;99.90;;;;;;5001951;28;20266;-68
2022/04/01 10:31:02;;;;;;;4.28;1.33;;;16.50;99.90;;;;;;4998732;28;20046;-69
2022/04/01 10:33:36;;;;;;;5.47;1.02;;;16.60;99.90;;;;;;5005989;28;20026;-63
2022/04/01 10:38:35;;;;;;;5.47;1.35;;;16.30;99.90;;;;;;5054282;23;20065;-68
2022/04/01 10:41:13;;;;;;;4.60;1.55;;;16.20;99.90;;;;;;5022505;28;20040;-67
2022/04/01 10:43:45;;;;;;;6.25;1.60;;;16.30;99.90;;;;;;5019764;28;20849;-65
2022/04/01 10:46:15;;;;;;;6.90;1.55;;;16.20;99.90;;;;;;5026042;28;20116;-64
2022/04/01 10:52:11;;;;;;;6.13;1.73;;;16.10;99.90;;;;;;5024990;28;20031;-65
2022/04/01 10:54:43;;;;;;;5.13;2.30;;;16.20;99.90;;;;;;4956208;28;20082;-67
2022/04/01 10:57:13;;;;;;;6.22;1.50;;;16.10;99.90;;;;;;4958984;28;20043;-66
2022/04/01 10:59:45;;;;;;;3.38;1.27;;;16.10;99.90;;;;;;4957737;28;20070;-66
2022/04/01 11:02:18;;;;;;;5.18;1.23;;;16.10;99.90;;;;;;4957585;28;20027;-65
2022/04/01 11:04:47;;;;;;;4.45;1.30;;;16.10;99.90;;;;;;4957661;28;20141;-67
2022/04/01 11:07:33;;;;;;;4.93;1.38;;;16.10;99.90;;;;;;4954114;28;20026;-66
2022/04/01 11:10:04;;;;;;;6.32;1.95;;;16.10;99.90;;;;;;4958273;28;20034;-65
2022/04/01 11:12:38;;;;;;;3.65;1.02;;;16.10;99.90;;;;;;4958250;28;20043;-67
2022/04/01 11:15:15;;;;;;;8.73;1.45;;;16.00;99.90;;;;;;4957526;28;20501;-65
2022/04/01 11:17:42;;;;;;;6.15;1.33;;;16.00;99.90;;;;;;4958966;28;20513;-65
2022/04/01 11:20:10;;;;;;;8.13;1.80;;;16.00;99.90;;;;;;4958253;28;20476;-64
2022/04/01 11:22:45;;;;;;;4.85;1.27;;;15.90;99.90;;;;;;4957102;28;20553;-67
2022/04/01 11:25:35;;;;;;;7.13;1.75;;;15.90;99.90;;;;;;4957696;28;20062;-68
2022/04/01 11:28:14;;;;;;;4.72;1.27;;;16.00;99.90;;;;;;4903127;29;20146;-67
2022/04/01 11:30:41;;;;;;;6.07;1.88;;;16.00;99.90;;;;;;4905718;29;20044;-65
2022/04/01 11:33:17;;;;;;;13.63;4.68;;;16.00;99.90;;;;;;4940876;29;20054;-65
2022/04/01 11:35:46;;;;;;;9.70;3.75;;;15.90;99.90;;;;;;4939242;29;20900;-66
2022/04/01 11:38:16;;;;;;;8.15;2.03;;;15.90;99.90;;;;;;4940900;29;20055;-67
2022/04/01 11:40:45;;;;;;;6.70;1.83;;;15.90;99.90;;;;;;4941195;29;20430;-66
2022/04/01 11:43:17;;;;;;;6.20;1.60;;;16.00;99.90;;;;;;4939698;28;20031;-66
2022/04/01 11:45:46;;;;;;;5.43;1.55;;;16.00;99.90;;;;;;4939728;29;20035;-65
2022/04/01 11:48:26;;;;;;;6.30;1.40;;;16.00;99.90;;;;;;4937313;29;20032;-67
2022/04/01 11:50:57;;;;;;;4.43;1.42;;;16.00;99.90;;;;;;4940673;29;20722;-65
2022/04/01 11:53:35;;;;;;;8.73;2.00;;;16.00;99.90;;;;;;4940420;29;20722;-65
2022/04/01 11:56:04;;;;;;;5.32;1.90;;;16.10;99.90;;;;;;4940586;29;20114;-66
2022/04/01 11:58:49;;;;;;;5.35;1.63;;;16.10;99.90;;;;;;4939349;29;20046;-66
2022/04/01 12:01:18;;;;;;;8.60;1.52;;;16.20;99.90;;;;;;4941088;29;20031;-67
2022/04/01 12:03:46;;;;;;;5.97;1.52;;;16.30;99.90;;;;;;4939822;29;20042;-67
2022/04/01 12:09:07;;;;;;;3.50;1.23;;;16.30;99.90;;;;;;5020978;28;20040;-66
2022/04/01 12:11:46;;;;;;;3.78;1.25;;;16.20;99.90;;;;;;5031471;28;20032;-65
2022/04/01 12:14:22;;;;;;;5.63;1.05;;;16.20;99.90;;;;;;5031881;28;20053;-66
2022/04/01 12:16:49;;;;;;;6.63;1.40;;;16.20;99.90;;;;;;5022726;28;20033;-64
2022/04/01 12:19:20;;;;;;;4.15;1.52;;;16.20;99.90;;;;;;5033283;28;20037;-67
2022/04/01 12:21:59;;;;;;;5.38;1.13;;;16.20;99.90;;;;;;5029523;28;20020;-65
2022/04/01 12:24:35;;;;;;;6.85;1.65;;;16.20;99.90;;;;;;5026922;28;20061;-66
2022/04/01 12:27:05;;;;;;;5.88;1.70;;;16.10;99.90;;;;;;5030895;28;20027;-64
2022/04/01 12:29:32;;;;;;;5.95;1.45;;;16.10;99.90;;;;;;5030854;28;20514;-64
2022/04/01 12:32:05;;;;;;;2.88;1.30;;;16.10;99.90;;;;;;5027022;28;20036;-66
2022/04/01 12:34:32;;;;;;;7.72;1.65;;;16.00;99.90;;;;;;5034613;28;20059;-64
2022/04/01 12:37:02;;;;;;;3.55;0.90;;;16.00;99.90;;;;;;5027134;28;20500;-64
2022/04/01 12:39:32;;;;;;;8.13;1.77;;;16.00;99.90;;;;;;5028113;28;20392;-66
2022/04/01 12:42:02;;;;;;;6.85;1.27;;;16.10;99.90;;;;;;5021339;28;20102;-64
2022/04/01 12:44:31;;;;;;;5.80;1.30;;;16.00;99.90;;;;;;5035645;28;20013;-65
2022/04/01 12:47:03;;;;;;;4.75;1.35;;;15.90;99.90;;;;;;5031566;28;20029;-65
2022/04/01 12:49:33;;;;;;;7.05;1.40;;;16.00;99.90;;;;;;5023605;28;20025;-67
2022/04/01 12:52:13;;;;;;;2.90;1.23;;;15.90;99.90;;;;;;5026612;28;20176;-64
2022/04/01 12:54:43;;;;;;;4.93;1.42;;;16.00;99.90;;;;;;5030993;28;20033;-64
2022/04/01 12:57:11;;;;;;;7.88;1.55;;;16.00;99.90;;;;;;5025471;28;20048;-66
2022/04/01 12:59:45;;;;;;;4.07;1.10;;;16.10;99.90;;;;;;5026287;28;20034;-65
2022/04/01 13:02:21;;;;;;;5.20;1.45;;;16.00;99.90;;;;;;5032728;28;20033;-65
2022/04/01 13:04:53;;;;;;;9.50;1.80;;;16.00;99.90;;;;;;5025622;28;20140;-66
2022/04/01 13:07:35;;;;;;;10.20;1.67;;;16.00;99.90;;;;;;5025774;28;20051;-66
2022/04/01 13:10:15;;;;;;;9.15;1.45;;;16.00;99.90;;;;;;5026161;28;20550;-66
2022/04/01 13:12:46;;;;;;;7.75;2.03;;;16.10;99.90;;;;;;5031822;28;20029;-65
2022/04/01 13:15:19;;;;;;;6.60;1.45;;;16.10;99.90;;;;;;5024646;28;20029;-67
2022/04/01 13:17:54;;;;;;;7.40;1.40;;;16.10;99.90;;;;;;5028260;28;20031;-67
2022/04/01 13:20:30;;;;;;;5.03;1.50;;;16.10;99.90;;;;;;5034044;28;20117;-65
2022/04/01 13:22:59;;;;;;;4.45;1.15;;;16.10;99.90;;;;;;5022999;28;20381;-67